createdAt,value
2023-06-29T00:00:33.719Z,991.11
2023-06-29T00:01:33.775Z,991.12
2023-06-29T00:02:33.574Z,991.14
2023-06-29T00:03:33.643Z,991.14
2023-06-29T00:05:15.884Z,991.10
2023-06-29T00:06:15.807Z,991.11
2023-06-29T00:07:15.743Z,991.08
2023-06-29T00:08:15.647Z,991.11
2023-06-29T00:09:15.793Z,991.05
2023-06-29T00:10:15.491Z,991.05
2023-06-29T00:11:15.415Z,991.02
2023-06-29T00:12:15.336Z,991.01
2023-06-29T00:13:15.260Z,991.03
2023-06-29T00:14:17.868Z,991.00
2023-06-29T00:15:15.106Z,990.99
2023-06-29T00:18:35.054Z,990.99
2023-06-29T00:19:34.965Z,990.98
2023-06-29T00:20:36.430Z,991.00
2023-06-29T00:51:32.480Z,990.76
2023-06-29T00:52:32.387Z,990.81
2023-06-29T00:53:32.298Z,990.81
2023-06-29T00:54:32.223Z,990.80
2023-06-29T00:59:31.870Z,990.80
2023-06-29T01:00:31.858Z,990.81
2023-06-29T01:01:32.828Z,990.82
2023-06-29T01:02:32.421Z,990.82
2023-06-29T01:03:32.376Z,990.82
2023-06-29T01:11:34.149Z,990.77
2023-06-29T01:12:31.592Z,990.81
2023-06-29T01:13:30.749Z,990.76
2023-06-29T01:14:30.665Z,990.75
2023-06-29T01:15:30.586Z,990.71
2023-06-29T01:16:30.536Z,990.66
2023-06-29T01:17:30.456Z,990.65
2023-06-29T01:18:30.362Z,990.70
2023-06-29T01:19:30.274Z,990.69
2023-06-29T01:20:30.206Z,990.70
2023-06-29T01:21:30.121Z,990.66
2023-06-29T01:22:30.237Z,990.71
2023-06-29T01:23:30.014Z,990.70
2023-06-29T01:24:29.886Z,990.66
2023-06-29T01:25:29.809Z,990.64
2023-06-29T01:26:29.881Z,990.64
2023-06-29T01:27:29.754Z,990.61
2023-06-29T01:28:29.575Z,990.59
2023-06-29T01:29:29.493Z,990.57
2023-06-29T01:30:29.423Z,990.53
2023-06-29T01:31:29.377Z,990.50
2023-06-29T01:32:29.641Z,990.55
2023-06-29T01:33:29.189Z,990.54
2023-06-29T01:34:29.105Z,990.54
2023-06-29T01:35:29.029Z,990.57
2023-06-29T01:36:28.948Z,990.56
2023-06-29T01:37:28.878Z,990.56
2023-06-29T01:38:28.804Z,990.59
2023-06-29T01:39:28.716Z,990.60
2023-06-29T01:40:29.006Z,990.59
2023-06-29T01:41:28.557Z,990.62
2023-06-29T01:42:28.490Z,990.57
2023-06-29T01:43:28.477Z,990.60
2023-06-29T01:44:28.321Z,990.62
2023-06-29T01:45:28.252Z,990.63
2023-06-29T01:46:28.193Z,990.62
2023-06-29T01:47:28.105Z,990.61
2023-06-29T01:48:28.113Z,990.58
2023-06-29T01:49:27.929Z,990.57
2023-06-29T01:50:27.867Z,990.57
2023-06-29T01:51:27.785Z,990.58
2023-06-29T01:52:27.696Z,990.58
2023-06-29T01:53:28.439Z,990.53
2023-06-29T01:54:27.543Z,990.55
2023-06-29T01:55:27.659Z,990.53
2023-06-29T01:56:27.382Z,990.50
2023-06-29T01:57:27.308Z,990.52
2023-06-29T01:58:27.227Z,990.53
2023-06-29T01:59:27.272Z,990.53
2023-06-29T02:00:27.080Z,990.50
2023-06-29T02:01:27.048Z,990.53
2023-06-29T02:02:26.936Z,990.50
2023-06-29T02:03:26.967Z,990.49
2023-06-29T02:04:26.762Z,990.51
2023-06-29T02:05:26.678Z,990.50
2023-06-29T02:06:29.235Z,990.46
2023-06-29T02:07:26.755Z,990.49
2023-06-29T02:08:26.490Z,990.48
2023-06-29T02:10:27.063Z,990.44
2023-06-29T02:11:26.484Z,990.43
2023-06-29T02:12:39.102Z,990.37
2023-06-29T02:14:26.012Z,990.36
2023-06-29T02:20:26.414Z,990.32
2023-06-29T02:30:25.686Z,990.30
2023-06-29T02:38:25.258Z,990.30
2023-06-29T02:48:23.554Z,990.26
2023-06-29T02:49:23.880Z,990.27
2023-06-29T02:50:23.600Z,990.27
2023-06-29T03:09:23.185Z,990.09
2023-06-29T03:24:21.237Z,990.14
2023-06-29T03:36:24.038Z,990.04
2023-06-29T04:06:17.649Z,989.93
2023-06-29T04:44:27.047Z,989.82
2023-06-29T04:49:13.887Z,989.75
2023-06-29T04:50:13.777Z,989.72
2023-06-29T04:51:13.703Z,989.72
2023-06-29T04:52:13.617Z,989.70
2023-06-29T04:53:13.797Z,989.70
2023-06-29T04:54:13.469Z,989.69
2023-06-29T04:55:13.385Z,989.69
2023-06-29T04:56:13.307Z,989.64
2023-06-29T04:57:13.256Z,989.68
2023-06-29T04:58:13.155Z,989.71
2023-06-29T04:59:13.077Z,989.68
2023-06-29T05:00:13.024Z,989.71
2023-06-29T05:01:12.957Z,989.64
2023-06-29T05:02:12.957Z,989.68
2023-06-29T05:03:12.907Z,989.66
2023-06-29T05:04:12.726Z,989.72
2023-06-29T05:05:13.109Z,989.77
2023-06-29T05:06:12.577Z,989.78
2023-06-29T05:08:12.976Z,989.81
2023-06-29T05:10:12.269Z,989.76
2023-06-29T05:11:12.917Z,989.79
2023-06-29T05:20:11.495Z,989.69
2023-06-29T05:21:11.388Z,989.68
2023-06-29T05:22:11.321Z,989.73
2023-06-29T05:23:11.242Z,989.71
2023-06-29T05:24:11.400Z,989.77
2023-06-29T05:32:14.388Z,989.70
2023-06-29T05:33:10.503Z,989.69
2023-06-29T05:34:10.396Z,989.68
2023-06-29T05:35:10.326Z,989.72
2023-06-29T05:36:10.353Z,989.74
2023-06-29T05:37:10.182Z,989.74
2023-06-29T05:38:10.101Z,989.75
2023-06-29T05:39:10.016Z,989.76
2023-06-29T05:42:45.589Z,989.77
2023-06-29T05:43:45.512Z,989.79
2023-06-29T05:44:45.441Z,989.76
2023-06-29T05:45:45.416Z,989.79
2023-06-29T05:46:45.282Z,989.76
2023-06-29T05:47:45.316Z,989.74
2023-06-29T05:48:45.142Z,989.73
2023-06-29T05:49:45.214Z,989.78
2023-06-29T05:50:45.204Z,989.68
2023-06-29T05:53:44.826Z,989.72
2023-06-29T05:54:44.679Z,989.69
2023-06-29T05:55:44.842Z,989.69
2023-06-29T06:02:44.160Z,989.62
2023-06-29T06:03:44.096Z,989.64
2023-06-29T06:04:43.942Z,989.63
2023-06-29T06:05:43.857Z,989.65
2023-06-29T06:06:43.796Z,989.63
2023-06-29T06:07:43.711Z,989.61
2023-06-29T06:08:43.633Z,989.64
2023-06-29T06:09:43.644Z,989.62
2023-06-29T06:10:43.815Z,989.62
2023-06-29T06:11:43.408Z,989.61
2023-06-29T06:12:43.591Z,989.60
2023-06-29T06:13:43.259Z,989.63
2023-06-29T06:14:43.190Z,989.62
2023-06-29T06:16:25.620Z,989.65
2023-06-29T06:17:25.632Z,989.63
2023-06-29T06:18:25.475Z,989.63
2023-06-29T06:19:25.371Z,989.62
2023-06-29T06:20:25.301Z,989.61
2023-06-29T06:21:25.227Z,989.59
2023-06-29T06:22:25.178Z,989.59
2023-06-29T06:23:26.285Z,989.59
2023-06-29T06:26:24.909Z,989.60
2023-06-29T06:27:24.841Z,989.60
2023-06-29T06:28:24.705Z,989.61
2023-06-29T06:29:24.628Z,989.62
2023-06-29T06:30:24.825Z,989.61
2023-06-29T06:31:33.497Z,989.60
2023-06-29T06:32:24.430Z,989.60
2023-06-29T06:33:24.334Z,989.63
2023-06-29T06:34:24.254Z,989.60
2023-06-29T06:35:24.183Z,989.60
2023-06-29T06:36:24.108Z,989.58
2023-06-29T06:37:24.038Z,989.57
2023-06-29T06:38:27.361Z,989.56
2023-06-29T06:39:23.985Z,989.56
2023-06-29T06:40:23.811Z,989.57
2023-06-29T06:41:23.744Z,989.57
2023-06-29T06:42:23.692Z,989.55
2023-06-29T06:43:23.589Z,989.54
2023-06-29T06:44:23.517Z,989.56
2023-06-29T06:45:23.448Z,989.52
2023-06-29T06:48:05.900Z,989.54
2023-06-29T06:49:05.716Z,989.56
2023-06-29T06:50:05.652Z,989.58
2023-06-29T06:51:05.558Z,989.57
2023-06-29T06:52:05.488Z,989.57
2023-06-29T06:53:05.421Z,989.58
2023-06-29T06:54:05.337Z,989.55
2023-06-29T06:55:05.525Z,989.57
2023-06-29T06:56:05.195Z,989.54
2023-06-29T06:57:05.117Z,989.55
2023-06-29T06:58:05.148Z,989.56
2023-06-29T06:59:04.970Z,989.55
2023-06-29T07:00:04.908Z,989.63
2023-06-29T07:01:04.858Z,989.56
2023-06-29T07:02:04.797Z,989.52
2023-06-29T07:03:04.852Z,989.56
2023-06-29T07:04:04.603Z,989.57
2023-06-29T07:05:04.535Z,989.50
2023-06-29T07:06:04.460Z,989.53
2023-06-29T07:07:04.416Z,989.53
2023-06-29T07:08:04.336Z,989.53
2023-06-29T07:09:07.879Z,989.56
2023-06-29T07:10:04.170Z,989.57
2023-06-29T07:11:04.105Z,989.55
2023-06-29T07:12:04.057Z,989.57
2023-06-29T07:13:03.948Z,989.55
2023-06-29T07:14:03.898Z,989.54
2023-06-29T07:15:03.813Z,989.56
2023-06-29T07:16:03.743Z,989.48
2023-06-29T07:17:03.767Z,989.54
2023-06-29T07:18:03.638Z,989.52
2023-06-29T07:21:16.927Z,989.52
2023-06-29T07:25:03.079Z,989.43
2023-06-29T07:27:02.933Z,989.46
2023-06-29T07:28:04.086Z,989.44
2023-06-29T07:29:02.789Z,989.44
2023-06-29T07:30:02.929Z,989.44
2023-06-29T07:31:03.486Z,989.43
2023-06-29T07:32:02.573Z,989.44
2023-06-29T07:33:02.612Z,989.43
2023-06-29T07:34:02.431Z,989.42
2023-06-29T07:35:02.345Z,989.40
2023-06-29T07:36:02.282Z,989.44
2023-06-29T07:37:02.314Z,989.40
2023-06-29T07:38:02.136Z,989.38
2023-06-29T07:39:02.072Z,989.40
2023-06-29T07:40:01.989Z,989.34
2023-06-29T07:41:01.917Z,989.39
2023-06-29T07:42:01.900Z,989.38
2023-06-29T07:43:01.790Z,989.41
2023-06-29T07:44:01.720Z,989.41
2023-06-29T07:45:01.631Z,989.33
2023-06-29T07:46:01.653Z,989.31
2023-06-29T07:47:01.555Z,989.34
2023-06-29T07:48:01.531Z,989.32
2023-06-29T07:49:01.422Z,989.33
2023-06-29T07:50:01.275Z,989.31
2023-06-29T07:51:01.197Z,989.28
2023-06-29T07:52:01.122Z,989.25
2023-06-29T07:53:01.105Z,989.30
2023-06-29T07:54:00.981Z,989.24
2023-06-29T07:55:01.303Z,989.31
2023-06-29T07:56:00.841Z,989.29
2023-06-29T07:59:00.618Z,989.29
2023-06-29T08:00:00.545Z,989.26
2023-06-29T08:01:00.526Z,989.29
2023-06-29T08:02:00.526Z,989.27
2023-06-29T08:03:00.383Z,989.24
2023-06-29T08:04:03.857Z,989.26
2023-06-29T08:07:00.166Z,989.21
2023-06-29T08:08:00.012Z,989.20
2023-06-29T08:09:00.003Z,989.21
2023-06-29T08:09:59.824Z,989.21
2023-06-29T08:10:59.750Z,989.22
2023-06-29T08:11:59.780Z,989.23
2023-06-29T08:12:59.611Z,989.21
2023-06-29T08:13:59.541Z,989.22
2023-06-29T08:14:59.463Z,989.20
2023-06-29T08:15:59.411Z,989.20
2023-06-29T08:16:59.396Z,989.18
2023-06-29T08:17:59.320Z,989.14
2023-06-29T08:18:59.281Z,989.12
2023-06-29T08:19:59.110Z,989.12
2023-06-29T08:20:59.034Z,989.13
2023-06-29T08:21:58.972Z,989.11
2023-06-29T08:22:58.893Z,989.16
2023-06-29T08:23:58.823Z,989.16
2023-06-29T08:24:58.749Z,989.15
2023-06-29T08:25:58.677Z,989.14
2023-06-29T08:26:58.621Z,989.15
2023-06-29T08:27:58.534Z,989.17
2023-06-29T08:28:58.467Z,989.13
2023-06-29T08:29:58.395Z,989.14
2023-06-29T08:30:58.332Z,989.12
2023-06-29T08:31:58.348Z,989.11
2023-06-29T08:32:58.253Z,989.12
2023-06-29T08:33:58.168Z,989.12
2023-06-29T08:34:58.039Z,989.09
2023-06-29T08:35:57.967Z,989.11
2023-06-29T08:36:57.950Z,989.12
2023-06-29T08:37:57.823Z,989.09
2023-06-29T08:38:57.746Z,989.10
2023-06-29T08:39:57.710Z,989.14
2023-06-29T08:40:57.618Z,989.13
2023-06-29T08:43:00.044Z,989.09
2023-06-29T08:43:59.971Z,989.10
2023-06-29T08:44:59.897Z,989.13
2023-06-29T08:45:59.895Z,989.14
2023-06-29T08:46:59.772Z,989.15
2023-06-29T08:47:59.700Z,989.12
2023-06-29T08:48:59.606Z,989.16
2023-06-29T08:49:59.555Z,989.14
2023-06-29T08:50:59.463Z,989.16
2023-06-29T08:51:59.391Z,989.11
2023-06-29T08:52:59.343Z,989.12
2023-06-29T08:53:59.249Z,989.09
2023-06-29T08:54:59.188Z,989.07
2023-06-29T08:55:59.107Z,989.04
2023-06-29T08:56:59.038Z,989.05
2023-06-29T08:57:59.364Z,989.06
2023-06-29T08:58:59.125Z,989.09
2023-06-29T08:59:58.825Z,989.07
2023-06-29T09:00:58.795Z,989.09
2023-06-29T09:01:58.709Z,989.08
2023-06-29T09:02:58.677Z,989.03
2023-06-29T09:03:58.724Z,989.05
2023-06-29T09:04:58.474Z,989.02
2023-06-29T09:05:58.440Z,989.03
2023-06-29T09:06:58.460Z,989.01
2023-06-29T09:07:58.264Z,989.01
2023-06-29T09:08:58.312Z,989.03
2023-06-29T09:09:58.120Z,989.05
2023-06-29T09:10:58.048Z,989.03
2023-06-29T09:11:57.969Z,989.06
2023-06-29T09:12:57.909Z,989.11
2023-06-29T09:13:57.822Z,989.09
2023-06-29T09:14:57.753Z,989.05
2023-06-29T09:15:57.707Z,989.05
2023-06-29T09:16:57.609Z,989.05
2023-06-29T09:17:57.609Z,989.06
2023-06-29T09:19:00.085Z,988.99
2023-06-29T09:19:57.400Z,989.00
2023-06-29T09:20:57.322Z,989.00
2023-06-29T09:21:57.274Z,989.00
2023-06-29T09:22:57.191Z,989.00
2023-06-29T09:23:57.130Z,988.99
2023-06-29T09:25:57.231Z,988.96
2023-06-29T09:26:56.949Z,988.95
2023-06-29T09:27:56.891Z,988.94
2023-06-29T09:28:56.755Z,988.92
2023-06-29T09:29:56.719Z,988.92
2023-06-29T09:30:56.680Z,988.92
2023-06-29T09:31:57.201Z,988.89
2023-06-29T09:33:43.964Z,988.91
2023-06-29T09:34:44.504Z,988.91
2023-06-29T09:35:43.872Z,988.88
2023-06-29T09:36:43.761Z,988.86
2023-06-29T09:37:43.708Z,988.83
2023-06-29T09:38:43.609Z,988.82
2023-06-29T09:41:01.055Z,988.79
2023-06-29T09:42:01.019Z,988.81
2023-06-29T09:43:00.913Z,988.78
2023-06-29T09:44:00.844Z,988.79
2023-06-29T09:45:00.811Z,988.77
2023-06-29T09:46:01.915Z,988.72
2023-06-29T09:50:00.627Z,988.72
2023-06-29T09:51:00.538Z,988.70
2023-06-29T09:52:00.279Z,988.73
2023-06-29T09:53:00.316Z,988.73
2023-06-29T09:54:00.342Z,988.75
2023-06-29T09:55:00.072Z,988.75
2023-06-29T09:56:00.019Z,988.73
2023-06-29T09:56:59.932Z,988.77
2023-06-29T09:57:59.870Z,988.72
2023-06-29T09:58:59.794Z,988.74
2023-06-29T09:59:59.722Z,988.78
2023-06-29T10:01:00.095Z,988.75
2023-06-29T10:01:59.635Z,988.75
2023-06-29T10:02:59.602Z,988.76
2023-06-29T10:03:59.495Z,988.78
2023-06-29T10:04:59.411Z,988.74
2023-06-29T10:05:59.319Z,988.76
2023-06-29T10:06:59.291Z,988.76
2023-06-29T10:07:59.165Z,988.76
2023-06-29T10:08:59.121Z,988.79
2023-06-29T10:09:59.034Z,988.76
2023-06-29T10:11:00.795Z,988.76
2023-06-29T10:11:58.892Z,988.78
2023-06-29T10:12:58.821Z,988.75
2023-06-29T10:13:58.748Z,988.72
2023-06-29T10:14:58.686Z,988.72
2023-06-29T10:15:58.612Z,988.71
2023-06-29T10:16:58.610Z,988.66
2023-06-29T10:17:58.513Z,988.63
2023-06-29T10:18:58.405Z,988.64
2023-06-29T10:19:58.392Z,988.64
2023-06-29T10:20:58.264Z,988.61
2023-06-29T10:21:58.193Z,988.61
2023-06-29T10:22:58.140Z,988.63
2023-06-29T10:23:58.070Z,988.60
2023-06-29T10:24:58.051Z,988.59
2023-06-29T10:25:57.916Z,988.62
2023-06-29T10:26:57.845Z,988.58
2023-06-29T10:27:57.832Z,988.59
2023-06-29T10:28:57.713Z,988.57
2023-06-29T10:29:57.689Z,988.59
2023-06-29T10:30:57.637Z,988.65
2023-06-29T10:31:57.502Z,988.62
2023-06-29T10:32:57.479Z,988.61
2023-06-29T10:33:57.361Z,988.61
2023-06-29T10:34:57.292Z,988.62
2023-06-29T10:35:57.230Z,988.63
2023-06-29T10:36:57.174Z,988.63
2023-06-29T10:37:57.089Z,988.55
2023-06-29T10:38:57.017Z,988.57
2023-06-29T10:39:56.949Z,988.55
2023-06-29T10:40:56.897Z,988.56
2023-06-29T10:41:56.809Z,988.59
2023-06-29T10:42:56.849Z,988.54
2023-06-29T10:43:56.768Z,988.57
2023-06-29T10:44:56.659Z,988.56
2023-06-29T10:45:56.545Z,988.55
2023-06-29T10:46:56.719Z,988.53
2023-06-29T10:47:56.472Z,988.52
2023-06-29T10:48:56.330Z,988.50
2023-06-29T10:49:56.269Z,988.51
2023-06-29T10:50:56.190Z,988.49
2023-06-29T10:51:56.128Z,988.55
2023-06-29T10:52:56.057Z,988.52
2023-06-29T10:53:55.993Z,988.50
2023-06-29T10:54:55.949Z,988.49
2023-06-29T10:55:55.848Z,988.48
2023-06-29T10:56:55.807Z,988.44
2023-06-29T10:57:55.714Z,988.42
2023-06-29T10:58:55.661Z,988.41
2023-06-29T10:59:55.642Z,988.44
2023-06-29T11:00:55.520Z,988.40
2023-06-29T11:01:55.543Z,988.39
2023-06-29T11:02:55.513Z,988.38
2023-06-29T11:03:55.412Z,988.39
2023-06-29T11:04:55.233Z,988.40
2023-06-29T11:05:55.165Z,988.34
2023-06-29T11:06:55.145Z,988.40
2023-06-29T11:10:20.733Z,988.44
2023-06-29T11:11:20.750Z,988.44
2023-06-29T11:12:20.670Z,988.48
2023-06-29T11:13:20.514Z,988.46
2023-06-29T11:14:20.493Z,988.50
2023-06-29T11:16:20.337Z,988.51
2023-06-29T11:17:20.212Z,988.54
2023-06-29T11:18:20.516Z,988.53
2023-06-29T11:19:20.075Z,988.50
2023-06-29T11:21:07.499Z,988.46
2023-06-29T11:22:07.432Z,988.48
2023-06-29T11:23:07.367Z,988.45
2023-06-29T11:24:07.294Z,988.45
2023-06-29T11:25:07.225Z,988.43
2023-06-29T11:26:07.158Z,988.45
2023-06-29T11:27:07.086Z,988.46
2023-06-29T11:28:07.045Z,988.43
2023-06-29T11:29:06.953Z,988.42
2023-06-29T11:30:06.877Z,988.41
2023-06-29T11:31:06.888Z,988.39
2023-06-29T11:32:06.848Z,988.43
2023-06-29T11:34:06.604Z,988.38
2023-06-29T11:35:06.534Z,988.37
2023-06-29T11:36:06.561Z,988.37
2023-06-29T11:38:06.363Z,988.41
2023-06-29T11:39:06.275Z,988.33
2023-06-29T11:40:06.192Z,988.35
2023-06-29T11:41:06.338Z,988.36
2023-06-29T11:42:06.080Z,988.37
2023-06-29T11:43:06.057Z,988.33
2023-06-29T11:44:05.971Z,988.35
2023-06-29T11:45:05.848Z,988.33
2023-06-29T11:46:05.808Z,988.30
2023-06-29T11:47:25.601Z,988.29
2023-06-29T11:48:05.679Z,988.26
2023-06-29T11:49:05.661Z,988.26
2023-06-29T11:50:05.504Z,988.26
2023-06-29T11:51:05.448Z,988.26
2023-06-29T11:52:05.367Z,988.25
2023-06-29T11:53:05.305Z,988.24
2023-06-29T11:54:05.234Z,988.22
2023-06-29T12:07:55.233Z,988.24
2023-06-29T12:08:54.801Z,988.22
2023-06-29T12:09:54.709Z,988.23
2023-06-29T12:10:54.643Z,988.19
2023-06-29T12:11:54.548Z,988.16
2023-06-29T12:12:54.480Z,988.18
2023-06-29T12:13:54.410Z,988.18
2023-06-29T12:14:54.336Z,988.19
2023-06-29T12:18:00.082Z,988.17
2023-06-29T12:18:54.165Z,988.19
2023-06-29T12:20:09.157Z,988.20
2023-06-29T12:20:54.121Z,988.19
2023-06-29T12:21:54.327Z,988.19
2023-06-29T12:22:53.777Z,988.18
2023-06-29T12:23:54.046Z,988.18
2023-06-29T12:24:53.638Z,988.17
2023-06-29T12:25:53.564Z,988.20
2023-06-29T12:26:53.492Z,988.17
2023-06-29T12:27:53.427Z,988.19
2023-06-29T12:28:53.355Z,988.19
2023-06-29T12:29:53.283Z,988.18
2023-06-29T12:30:53.223Z,988.20
2023-06-29T12:31:53.222Z,988.20
2023-06-29T12:32:53.082Z,988.21
2023-06-29T12:33:53.000Z,988.23
2023-06-29T12:34:53.158Z,988.21
2023-06-29T12:35:52.880Z,988.21
2023-06-29T12:36:52.785Z,988.22
2023-06-29T12:37:52.724Z,988.24
2023-06-29T12:38:52.664Z,988.25
2023-06-29T12:39:52.597Z,988.26
2023-06-29T12:40:52.515Z,988.27
2023-06-29T12:41:52.433Z,988.26
2023-06-29T12:42:52.369Z,988.24
2023-06-29T12:43:52.305Z,988.23
2023-06-29T12:44:52.222Z,988.26
2023-06-29T12:45:52.154Z,988.23
2023-06-29T12:46:52.140Z,988.23
2023-06-29T12:47:52.018Z,988.21
2023-06-29T12:48:51.940Z,988.20
2023-06-29T12:49:51.889Z,988.18
2023-06-29T12:50:51.798Z,988.18
2023-06-29T12:51:51.731Z,988.19
2023-06-29T12:52:51.665Z,988.19
2023-06-29T12:53:51.587Z,988.23
2023-06-29T12:54:51.523Z,988.20
2023-06-29T12:55:51.466Z,988.21
2023-06-29T12:56:51.417Z,988.21
2023-06-29T12:57:51.304Z,988.18
2023-06-29T12:58:51.246Z,988.23
2023-06-29T12:59:51.163Z,988.18
2023-06-29T13:00:51.127Z,988.20
2023-06-29T13:01:51.050Z,988.19
2023-06-29T13:02:51.031Z,988.20
2023-06-29T13:03:51.049Z,988.18
2023-06-29T13:04:50.812Z,988.20
2023-06-29T13:05:50.979Z,988.16
2023-06-29T13:06:50.715Z,988.24
2023-06-29T13:07:50.632Z,988.24
2023-06-29T13:08:50.530Z,988.22
2023-06-29T13:09:50.492Z,988.22
2023-06-29T13:10:50.413Z,988.25
2023-06-29T13:11:50.329Z,988.25
2023-06-29T13:12:50.233Z,988.25
2023-06-29T13:13:50.164Z,988.26
2023-06-29T13:14:50.093Z,988.25
2023-06-29T13:15:50.048Z,988.24
2023-06-29T13:16:49.984Z,988.27
2023-06-29T13:17:49.913Z,988.29
2023-06-29T13:18:49.809Z,988.32
2023-06-29T13:19:49.783Z,988.35
2023-06-29T13:20:49.663Z,988.36
2023-06-29T13:21:49.637Z,988.39
2023-06-29T13:22:49.524Z,988.37
2023-06-29T13:23:49.550Z,988.35
2023-06-29T13:24:49.376Z,988.36
2023-06-29T13:25:49.455Z,988.41
2023-06-29T13:26:49.234Z,988.39
2023-06-29T13:27:49.203Z,988.39
2023-06-29T13:28:49.100Z,988.42
2023-06-29T13:29:49.017Z,988.42
2023-06-29T13:30:48.972Z,988.47
2023-06-29T13:31:48.882Z,988.45
2023-06-29T13:32:48.881Z,988.48
2023-06-29T13:33:48.736Z,988.38
2023-06-29T13:34:48.664Z,988.41
2023-06-29T13:35:48.874Z,988.41
2023-06-29T13:36:48.520Z,988.40
2023-06-29T13:37:48.507Z,988.35
2023-06-29T13:38:48.385Z,988.40
2023-06-29T13:39:49.430Z,988.40
2023-06-29T13:40:48.238Z,988.36
2023-06-29T13:41:48.572Z,988.37
2023-06-29T13:42:48.092Z,988.39
2023-06-29T13:43:48.053Z,988.37
2023-06-29T13:44:47.957Z,988.50
2023-06-29T13:45:50.021Z,988.38
2023-06-29T13:46:47.829Z,988.37
2023-06-29T13:48:30.367Z,988.43
2023-06-29T13:49:30.174Z,988.43
2023-06-29T13:54:44.027Z,988.59
2023-06-29T13:55:44.359Z,988.53
2023-06-29T13:56:43.831Z,988.52
2023-06-29T13:57:43.740Z,988.55
2023-06-29T13:58:44.012Z,988.44
2023-06-29T13:59:43.634Z,988.49
2023-06-29T14:00:43.545Z,988.36
2023-06-29T14:01:43.511Z,988.33
2023-06-29T14:02:43.529Z,988.37
2023-06-29T14:03:43.443Z,988.17
2023-06-29T14:04:43.291Z,988.09
2023-06-29T14:05:43.483Z,988.09
2023-06-29T14:06:43.464Z,988.12
2023-06-29T14:07:43.091Z,988.12
2023-06-29T14:08:43.028Z,988.05
2023-06-29T14:09:42.968Z,988.05
2023-06-29T14:10:42.914Z,988.03
2023-06-29T14:11:42.832Z,988.06
2023-06-29T14:12:42.777Z,988.08
2023-06-29T14:13:42.698Z,988.06
2023-06-29T14:14:42.631Z,988.05
2023-06-29T14:15:42.579Z,988.03
2023-06-29T14:17:25.685Z,987.99
2023-06-29T14:18:27.674Z,988.01
2023-06-29T14:19:24.860Z,987.98
2023-06-29T14:20:24.789Z,988.04
2023-06-29T14:21:24.721Z,987.99
2023-06-29T14:22:24.656Z,987.97
2023-06-29T14:23:24.635Z,987.99
2023-06-29T14:24:24.520Z,987.97
2023-06-29T14:25:25.259Z,987.96
2023-06-29T14:26:24.426Z,987.95
2023-06-29T14:27:25.126Z,987.92
2023-06-29T15:12:56.196Z,987.29
2023-06-29T15:13:56.053Z,987.30
2023-06-29T15:14:55.993Z,987.27
2023-06-29T15:15:55.937Z,987.23
2023-06-29T15:16:55.851Z,987.21
2023-06-29T15:17:55.900Z,987.21
2023-06-29T15:19:00.112Z,987.23
2023-06-29T15:19:55.648Z,987.19
2023-06-29T15:20:55.586Z,987.21
2023-06-29T15:21:55.513Z,987.24
2023-06-29T15:22:55.460Z,987.26
2023-06-29T15:23:55.602Z,987.19
2023-06-29T15:24:55.522Z,987.27
2023-06-29T15:25:55.247Z,987.27
2023-06-29T15:26:55.178Z,987.25
2023-06-29T15:27:55.114Z,987.22
2023-06-29T15:28:55.067Z,987.19
2023-06-29T15:29:54.979Z,987.21
2023-06-29T15:30:55.296Z,987.17
2023-06-29T15:31:55.007Z,987.15
2023-06-29T15:32:54.830Z,987.13
2023-06-29T15:33:54.710Z,987.13
2023-06-29T15:34:54.651Z,987.10
2023-06-29T15:35:54.632Z,987.12
2023-06-29T15:36:54.807Z,987.10
2023-06-29T15:37:54.445Z,987.08
2023-06-29T15:38:54.680Z,987.09
2023-06-29T15:39:54.305Z,987.06
2023-06-29T15:40:54.855Z,987.07
2023-06-29T15:41:54.169Z,987.08
2023-06-29T15:42:54.152Z,987.08
2023-06-29T15:43:54.032Z,987.07
2023-06-29T15:44:53.985Z,987.07
2023-06-29T15:45:53.892Z,987.06
2023-06-29T15:46:53.880Z,987.06
2023-06-29T15:47:53.858Z,987.09
2023-06-29T15:48:53.748Z,987.12
2023-06-29T15:49:53.645Z,987.08
2023-06-29T15:50:53.579Z,987.09
2023-06-29T15:51:53.536Z,987.08
2023-06-29T15:52:53.544Z,987.08
2023-06-29T15:53:53.397Z,987.03
2023-06-29T15:54:53.284Z,987.02
2023-06-29T15:55:53.216Z,987.01
2023-06-29T15:56:53.149Z,987.03
2023-06-29T15:57:53.090Z,986.99
2023-06-29T15:58:53.015Z,987.01
2023-06-29T15:59:52.956Z,987.00
2023-06-29T16:00:55.763Z,987.01
2023-06-29T16:01:52.845Z,986.98
2023-06-29T16:02:52.798Z,987.00
2023-06-29T16:03:52.773Z,987.01
2023-06-29T16:04:52.638Z,987.02
2023-06-29T16:05:52.539Z,986.98
2023-06-29T16:06:52.517Z,987.02
2023-06-29T16:07:52.402Z,987.01
2023-06-29T16:08:52.689Z,987.02
2023-06-29T16:09:52.277Z,987.02
2023-06-29T16:13:53.003Z,987.01
2023-06-29T16:14:52.911Z,987.04
2023-06-29T16:15:52.811Z,986.99
2023-06-29T16:16:52.813Z,987.00
2023-06-29T16:17:52.736Z,987.00
2023-06-29T16:18:52.607Z,986.98
2023-06-29T16:19:52.539Z,986.96
2023-06-29T16:20:52.468Z,986.92
2023-06-29T16:21:52.397Z,986.92
2023-06-29T16:22:52.407Z,986.91
2023-06-29T16:23:52.266Z,986.88
2023-06-29T16:24:52.343Z,986.88
2023-06-29T16:25:52.121Z,986.90
2023-06-29T16:26:52.086Z,986.88
2023-06-29T16:27:51.994Z,986.86
2023-06-29T16:28:51.920Z,986.88
2023-06-29T16:29:51.848Z,986.91
2023-06-29T16:30:51.838Z,986.90
2023-06-29T16:31:52.063Z,986.89
2023-06-29T16:32:51.707Z,986.89
2023-06-29T16:33:51.597Z,986.86
2023-06-29T16:34:51.497Z,986.90
2023-06-29T16:35:51.429Z,986.87
2023-06-29T16:36:51.440Z,986.93
2023-06-29T16:37:51.301Z,986.92
2023-06-29T16:38:51.222Z,986.93
2023-06-29T16:39:51.203Z,986.93
2023-06-29T16:40:51.082Z,986.91
2023-06-29T16:41:51.017Z,986.86
2023-06-29T16:42:50.944Z,986.89
2023-06-29T16:43:50.875Z,986.85
2023-06-29T16:44:50.807Z,986.83
2023-06-29T16:45:50.734Z,986.79
2023-06-29T16:46:50.840Z,986.80
2023-06-29T16:47:50.673Z,986.83
2023-06-29T16:48:50.701Z,986.78
2023-06-29T16:49:50.472Z,986.81
2023-06-29T16:50:50.455Z,986.77
2023-06-29T16:51:50.328Z,986.78
2023-06-29T16:52:50.253Z,986.79
2023-06-29T16:53:50.184Z,986.77
2023-06-29T16:54:50.117Z,986.75
2023-06-29T16:55:50.047Z,986.72
2023-06-29T16:56:49.978Z,986.72
2023-06-29T16:57:49.953Z,986.76
2023-06-29T16:58:49.847Z,986.72
2023-06-29T16:59:49.782Z,986.70
2023-06-29T17:00:49.785Z,986.70
2023-06-29T17:01:49.753Z,986.70
2023-06-29T17:02:49.610Z,986.71
2023-06-29T17:03:49.609Z,986.66
2023-06-29T17:04:49.456Z,986.73
2023-06-29T17:05:49.361Z,986.71
2023-06-29T17:06:49.297Z,986.73
2023-06-29T17:07:49.234Z,986.72
2023-06-29T17:08:49.515Z,986.73
2023-06-29T17:09:49.107Z,986.73
2023-06-29T17:10:49.030Z,986.76
2023-06-29T17:11:48.957Z,986.76
2023-06-29T17:12:48.931Z,986.77
2023-06-29T17:13:48.830Z,986.80
2023-06-29T17:14:48.753Z,986.76
2023-06-29T17:15:49.248Z,986.75
2023-06-29T17:16:48.689Z,986.75
2023-06-29T17:17:48.717Z,986.73
2023-06-29T17:18:48.519Z,986.69
2023-06-29T17:19:48.404Z,986.71
2023-06-29T17:20:48.351Z,986.70
2023-06-29T17:21:48.264Z,986.70
2023-06-29T17:22:48.400Z,986.70
2023-06-29T17:23:48.135Z,986.70
2023-06-29T17:24:48.057Z,986.71
2023-06-29T17:25:47.988Z,986.73
2023-06-29T17:26:47.925Z,986.75
2023-06-29T17:27:47.854Z,986.73
2023-06-29T17:28:47.791Z,986.75
2023-06-29T17:29:47.713Z,986.69
2023-06-29T17:30:47.641Z,986.71
2023-06-29T17:31:47.618Z,986.71
2023-06-29T17:32:47.632Z,986.65
2023-06-29T17:33:54.741Z,986.66
2023-06-29T17:34:47.378Z,986.63
2023-06-29T17:35:47.731Z,986.68
2023-06-29T17:36:47.249Z,986.67
2023-06-29T17:37:47.156Z,986.71
2023-06-29T17:38:47.101Z,986.71
2023-06-29T17:39:47.140Z,986.71